createdAt,value
2018-12-26T00:00:32.729Z,4.10
2018-12-26T00:01:33.856Z,4.10
2018-12-26T00:02:34.969Z,4.20
2018-12-26T00:03:35.995Z,4.10
2018-12-26T00:04:37.016Z,4.10
2018-12-26T00:05:38.140Z,4.20
2018-12-26T00:06:39.161Z,4.20
2018-12-26T00:07:40.233Z,4.10
2018-12-26T00:08:41.270Z,4.20
2018-12-26T00:09:42.286Z,4.20
2018-12-26T00:10:43.317Z,4.20
2018-12-26T00:11:44.336Z,4.20
2018-12-26T00:12:45.373Z,4.20
2018-12-26T00:13:46.397Z,4.20
2018-12-26T00:14:47.414Z,4.20
2018-12-26T00:15:48.436Z,4.30
2018-12-26T00:16:49.494Z,4.30
2018-12-26T00:17:50.522Z,4.30
2018-12-26T00:18:51.549Z,4.30
2018-12-26T00:19:52.681Z,4.40
2018-12-26T00:20:53.784Z,4.40
2018-12-26T00:21:54.804Z,4.50
2018-12-26T00:22:55.817Z,4.40
2018-12-26T00:23:56.945Z,4.50
2018-12-26T00:24:57.984Z,4.50
2018-12-26T00:26:01.778Z,4.50
2018-12-26T00:27:01.912Z,4.50
2018-12-26T00:28:02.924Z,4.50
2018-12-26T00:29:03.960Z,4.50
2018-12-26T00:30:04.977Z,4.50
2018-12-26T00:31:05.997Z,4.50
2018-12-26T00:32:07.017Z,4.40
2018-12-26T00:33:08.028Z,4.40
2018-12-26T00:34:09.066Z,4.50
2018-12-26T00:35:10.089Z,4.50
2018-12-26T00:36:11.133Z,4.60
2018-12-26T00:37:12.212Z,4.60
2018-12-26T00:38:13.285Z,4.60
2018-12-26T00:39:14.552Z,4.60
2018-12-26T00:40:15.573Z,4.70
2018-12-26T00:41:16.876Z,4.60
2018-12-26T00:42:17.909Z,4.70
2018-12-26T00:43:18.937Z,4.70
2018-12-26T00:44:19.961Z,4.70
2018-12-26T00:45:20.988Z,4.70
2018-12-26T00:46:22.029Z,4.70
2018-12-26T00:47:23.045Z,4.60
2018-12-26T00:48:24.069Z,4.60
2018-12-26T00:49:25.112Z,4.50
2018-12-26T00:50:26.213Z,4.50
2018-12-26T00:51:27.236Z,4.50
2018-12-26T00:52:28.282Z,4.50
2018-12-26T00:53:29.300Z,4.50
2018-12-26T00:54:30.329Z,4.50
2018-12-26T00:55:31.588Z,4.50
2018-12-26T00:56:32.601Z,4.60
2018-12-26T00:57:33.627Z,4.60
2018-12-26T00:58:34.652Z,4.60
2018-12-26T00:59:35.882Z,4.60
2018-12-26T01:00:36.909Z,4.60
2018-12-26T01:01:37.928Z,4.60
2018-12-26T01:02:38.949Z,4.50
2018-12-26T01:03:39.993Z,4.50
2018-12-26T01:04:41.030Z,4.50
2018-12-26T01:05:42.075Z,4.40
2018-12-26T01:06:43.173Z,4.40
2018-12-26T01:07:44.207Z,4.40
2018-12-26T01:08:45.238Z,4.40
2018-12-26T01:09:46.282Z,4.40
2018-12-26T01:10:47.314Z,4.40
2018-12-26T01:11:48.345Z,4.40
2018-12-26T01:12:49.380Z,4.30
2018-12-26T01:13:50.408Z,4.30
2018-12-26T01:14:51.446Z,4.30
2018-12-26T01:15:52.519Z,4.30
2018-12-26T01:16:53.593Z,4.30
2018-12-26T01:17:54.608Z,4.30
2018-12-26T01:18:55.645Z,4.30
2018-12-26T01:19:56.669Z,4.30
2018-12-26T01:20:57.684Z,4.30
2018-12-26T01:21:58.704Z,4.30
2018-12-26T01:22:59.725Z,4.30
2018-12-26T01:24:00.749Z,4.30
2018-12-26T01:25:01.771Z,4.30
2018-12-26T01:26:02.788Z,4.30
2018-12-26T01:27:03.812Z,4.30
2018-12-26T01:28:04.820Z,4.30
2018-12-26T01:29:05.864Z,4.30
2018-12-26T01:30:07.093Z,4.20
2018-12-26T01:31:08.113Z,4.20
2018-12-26T01:32:09.133Z,4.10
2018-12-26T01:33:10.204Z,4.10
2018-12-26T01:34:11.256Z,4.20
2018-12-26T01:35:12.268Z,4.10
2018-12-26T01:36:13.319Z,4.10
2018-12-26T01:37:14.353Z,4.10
2018-12-26T01:38:15.381Z,4.10
2018-12-26T01:39:16.411Z,4.10
2018-12-26T01:40:17.449Z,4.10
2018-12-26T01:41:18.477Z,4.10
2018-12-26T01:42:19.533Z,4.10
2018-12-26T01:43:20.560Z,4.20
2018-12-26T01:44:21.584Z,4.20
2018-12-26T01:45:22.612Z,4.20
2018-12-26T01:46:23.629Z,4.30
2018-12-26T01:47:24.658Z,4.30
2018-12-26T01:48:25.669Z,4.20
2018-12-26T01:49:26.701Z,4.20
2018-12-26T01:50:27.727Z,4.20
2018-12-26T01:51:28.744Z,4.20
2018-12-26T01:52:29.778Z,4.20
2018-12-26T01:53:30.805Z,4.10
2018-12-26T01:54:31.847Z,4.10
2018-12-26T01:55:32.870Z,4.10
2018-12-26T01:56:33.898Z,4.10
2018-12-26T01:57:34.921Z,4.00
2018-12-26T01:58:36.052Z,4.00
2018-12-26T01:59:37.069Z,4.00
2018-12-26T02:00:38.089Z,3.90
2018-12-26T02:01:39.109Z,3.90
2018-12-26T02:02:40.152Z,3.90
2018-12-26T02:03:41.165Z,4.00
2018-12-26T02:04:42.197Z,3.90
2018-12-26T02:05:43.233Z,4.00
2018-12-26T02:06:44.252Z,4.00
2018-12-26T02:07:45.274Z,3.90
2018-12-26T02:08:46.298Z,3.90
2018-12-26T02:09:47.320Z,3.90
2018-12-26T02:10:48.341Z,3.90
2018-12-26T02:11:49.360Z,3.90
2018-12-26T02:12:50.381Z,3.90
2018-12-26T02:13:51.385Z,3.90
2018-12-26T02:14:52.416Z,3.90
2018-12-26T02:15:53.441Z,3.80
2018-12-26T02:16:54.461Z,3.80
2018-12-26T02:17:55.473Z,3.80
2018-12-26T02:18:56.497Z,3.80
2018-12-26T02:19:57.621Z,3.80
2018-12-26T02:20:58.736Z,3.80
2018-12-26T02:21:59.773Z,3.70
2018-12-26T02:23:00.797Z,3.70
2018-12-26T02:24:01.809Z,3.70
2018-12-26T02:25:03.141Z,3.70
2018-12-26T02:26:04.172Z,3.80
2018-12-26T02:27:05.337Z,3.80
2018-12-26T02:28:06.367Z,3.70
2018-12-26T02:29:07.431Z,3.70
2018-12-26T02:30:08.472Z,3.70
2018-12-26T02:31:09.482Z,3.70
2018-12-26T02:32:10.509Z,3.80
2018-12-26T02:33:11.522Z,3.80
2018-12-26T02:34:12.546Z,3.80
2018-12-26T02:35:13.577Z,3.80
2018-12-26T02:36:14.612Z,3.80
2018-12-26T02:37:15.634Z,3.70
2018-12-26T02:38:16.645Z,3.70
2018-12-26T02:39:17.670Z,3.70
2018-12-26T02:40:18.688Z,3.70
2018-12-26T02:41:19.705Z,3.80
2018-12-26T02:42:20.725Z,3.80
2018-12-26T02:43:21.747Z,3.80
2018-12-26T02:44:22.761Z,3.70
2018-12-26T02:45:23.789Z,3.80
2018-12-26T02:46:24.806Z,3.80
2018-12-26T02:47:25.826Z,3.80
2018-12-26T02:48:26.840Z,3.80
2018-12-26T02:49:27.866Z,3.90
2018-12-26T02:50:28.892Z,3.90
2018-12-26T02:51:29.933Z,3.90
2018-12-26T02:52:30.960Z,3.90
2018-12-26T02:53:31.969Z,4.00
2018-12-26T02:54:32.989Z,4.00
2018-12-26T02:55:34.023Z,4.00
2018-12-26T02:56:35.148Z,4.10
2018-12-26T02:57:36.165Z,4.10
2018-12-26T02:58:37.186Z,4.10
2018-12-26T02:59:38.205Z,4.10
2018-12-26T03:00:39.232Z,4.10
2018-12-26T03:01:40.249Z,4.20
2018-12-26T03:02:41.376Z,4.10
2018-12-26T03:03:42.395Z,4.10
2018-12-26T03:04:43.429Z,4.10
2018-12-26T03:05:44.448Z,4.10
2018-12-26T03:06:45.467Z,3.90
2018-12-26T03:07:46.484Z,4.00
2018-12-26T03:08:47.518Z,4.00
2018-12-26T03:09:48.548Z,4.00
2018-12-26T03:10:49.613Z,3.90
2018-12-26T03:11:50.790Z,3.90
2018-12-26T03:12:51.813Z,3.90
2018-12-26T03:13:52.842Z,3.90
2018-12-26T03:14:53.857Z,3.90
2018-12-26T03:15:54.888Z,3.90
2018-12-26T03:16:55.908Z,3.90
2018-12-26T03:17:56.925Z,3.90
2018-12-26T03:18:57.950Z,3.90
2018-12-26T03:19:59.076Z,3.90
2018-12-26T03:21:00.093Z,4.00
2018-12-26T03:22:01.119Z,4.00
2018-12-26T03:23:02.127Z,4.10
2018-12-26T03:24:03.150Z,4.10
2018-12-26T03:25:04.360Z,4.10
2018-12-26T03:26:05.401Z,4.20
2018-12-26T03:27:06.414Z,4.20
2018-12-26T03:28:07.452Z,4.20
2018-12-26T03:29:08.560Z,4.20
2018-12-26T03:30:09.615Z,4.20
2018-12-26T03:31:10.740Z,4.20
2018-12-26T03:32:11.856Z,4.20
2018-12-26T03:33:12.866Z,4.20
2018-12-26T03:34:13.899Z,4.10
2018-12-26T03:35:14.923Z,4.10
2018-12-26T03:36:16.261Z,4.10
2018-12-26T03:37:17.285Z,3.90
2018-12-26T03:38:18.317Z,4.10
2018-12-26T03:39:19.433Z,4.10
2018-12-26T03:40:20.549Z,4.10
2018-12-26T03:41:21.685Z,4.20
2018-12-26T03:42:22.792Z,4.10
2018-12-26T03:43:23.933Z,4.10
2018-12-26T03:44:24.973Z,4.20
2018-12-26T03:45:26.691Z,4.20
2018-12-26T03:46:28.208Z,4.30
2018-12-26T03:47:30.043Z,4.30
2018-12-26T03:48:31.047Z,4.30
2018-12-26T03:49:32.059Z,4.40
2018-12-26T03:50:33.086Z,4.40
2018-12-26T03:51:34.100Z,4.40
2018-12-26T03:52:35.131Z,4.30
2018-12-26T03:53:36.244Z,4.30
2018-12-26T03:54:37.268Z,4.20
2018-12-26T03:55:38.297Z,4.20
2018-12-26T03:56:39.328Z,4.20
2018-12-26T03:57:40.345Z,4.20
2018-12-26T03:58:41.360Z,4.20
2018-12-26T03:59:42.380Z,4.20
2018-12-26T04:00:43.405Z,4.20
2018-12-26T04:01:44.664Z,4.20
2018-12-26T04:02:45.685Z,4.20
2018-12-26T04:03:46.704Z,4.20
2018-12-26T04:04:47.731Z,4.30
2018-12-26T04:05:48.755Z,4.30
2018-12-26T04:06:49.773Z,4.30
2018-12-26T04:07:51.106Z,4.30
2018-12-26T04:08:52.116Z,4.30
2018-12-26T04:09:53.142Z,4.30
2018-12-26T04:10:54.366Z,4.40
2018-12-26T04:11:55.425Z,4.40
2018-12-26T04:12:56.444Z,4.40
2018-12-26T04:13:57.574Z,4.40
2018-12-26T04:14:58.701Z,4.40
2018-12-26T04:15:59.728Z,4.40
2018-12-26T04:17:00.844Z,4.40
2018-12-26T04:18:02.053Z,4.50
2018-12-26T04:19:03.180Z,4.50
2018-12-26T04:20:04.584Z,4.50
2018-12-26T04:21:05.612Z,4.40
2018-12-26T04:22:06.738Z,4.40
2018-12-26T04:23:08.115Z,4.40
2018-12-26T04:24:09.361Z,4.30
2018-12-26T04:25:10.583Z,4.30
2018-12-26T04:26:11.605Z,4.30
2018-12-26T04:27:15.566Z,4.30
2018-12-26T04:28:15.647Z,4.20
2018-12-26T04:29:16.696Z,4.20
2018-12-26T04:30:17.711Z,4.10
2018-12-26T04:31:18.740Z,4.10
2018-12-26T04:32:19.758Z,4.00
2018-12-26T04:33:20.769Z,3.90
2018-12-26T04:34:21.785Z,3.90
2018-12-26T04:35:22.806Z,3.80
2018-12-26T04:36:23.850Z,3.70
2018-12-26T04:37:24.866Z,3.70
2018-12-26T04:38:25.889Z,3.70
2018-12-26T04:39:26.909Z,3.60
2018-12-26T04:40:27.925Z,3.60
2018-12-26T04:41:28.961Z,3.60
2018-12-26T04:42:29.978Z,3.60
2018-12-26T04:43:30.992Z,3.50
2018-12-26T04:44:32.115Z,3.50
2018-12-26T04:45:33.133Z,3.50
2018-12-26T04:46:34.161Z,3.50
2018-12-26T04:47:35.184Z,3.50
2018-12-26T04:48:36.192Z,3.50
2018-12-26T04:49:37.216Z,3.50
2018-12-26T04:50:38.244Z,3.50
2018-12-26T04:51:39.292Z,3.50
2018-12-26T04:52:40.304Z,3.50
2018-12-26T04:53:41.316Z,3.50
2018-12-26T04:54:42.337Z,3.60
2018-12-26T04:55:43.361Z,3.60
2018-12-26T04:56:44.401Z,3.60
2018-12-26T04:57:45.421Z,3.60
2018-12-26T04:58:46.852Z,3.60
2018-12-26T04:59:47.873Z,3.60
2018-12-26T05:00:49.092Z,3.60
2018-12-26T05:01:50.109Z,3.70
2018-12-26T05:02:51.129Z,3.70
2018-12-26T05:03:52.149Z,3.70
2018-12-26T05:04:53.167Z,3.70
2018-12-26T05:05:54.183Z,3.80
2018-12-26T05:06:55.205Z,3.70
2018-12-26T05:07:56.222Z,3.70
2018-12-26T05:08:57.240Z,3.80
2018-12-26T05:09:58.249Z,3.70
2018-12-26T05:10:59.271Z,3.70
2018-12-26T05:12:00.312Z,3.70
2018-12-26T05:13:01.432Z,3.70
2018-12-26T05:14:02.452Z,3.60
2018-12-26T05:15:03.769Z,3.70
2018-12-26T05:16:04.788Z,3.70
2018-12-26T05:17:05.817Z,3.70
2018-12-26T05:18:06.835Z,3.70
2018-12-26T05:19:08.079Z,3.70
2018-12-26T05:20:09.104Z,3.70
2018-12-26T05:21:10.139Z,3.70
2018-12-26T05:22:11.161Z,3.60
2018-12-26T05:23:12.276Z,3.70
2018-12-26T05:24:13.392Z,3.70
2018-12-26T05:25:14.508Z,3.70
2018-12-26T05:26:15.536Z,3.60
2018-12-26T05:27:16.557Z,3.60
2018-12-26T05:28:17.586Z,3.60
2018-12-26T05:29:18.606Z,3.50
2018-12-26T05:30:19.628Z,3.50
2018-12-26T05:31:20.657Z,3.50
2018-12-26T05:32:21.681Z,3.50
2018-12-26T05:33:22.701Z,3.40
2018-12-26T05:34:23.708Z,3.40
2018-12-26T05:35:24.724Z,3.40
2018-12-26T05:36:25.765Z,3.40
2018-12-26T05:37:26.786Z,3.30
2018-12-26T05:38:27.811Z,3.30
2018-12-26T05:39:28.829Z,3.30
2018-12-26T05:40:29.853Z,3.30
2018-12-26T05:41:30.890Z,3.40
2018-12-26T05:42:31.916Z,3.40
2018-12-26T05:43:32.932Z,3.40
2018-12-26T05:44:33.953Z,3.40
2018-12-26T05:45:34.976Z,3.40
2018-12-26T05:46:36.011Z,3.40
2018-12-26T05:47:37.024Z,3.40
2018-12-26T05:48:38.045Z,3.40
2018-12-26T05:49:39.100Z,3.40
2018-12-26T05:50:40.116Z,3.40
2018-12-26T05:51:41.169Z,3.40
2018-12-26T05:52:42.190Z,3.40
2018-12-26T05:53:43.213Z,3.40
2018-12-26T05:54:44.465Z,3.50
2018-12-26T05:55:45.488Z,3.50
2018-12-26T05:56:46.509Z,3.60
2018-12-26T05:57:47.533Z,3.60
2018-12-26T05:58:48.559Z,3.60
2018-12-26T05:59:49.585Z,3.60
2018-12-26T06:00:50.614Z,3.60
2018-12-26T06:01:51.656Z,3.60
2018-12-26T06:02:52.817Z,3.70
2018-12-26T06:03:53.838Z,3.70
2018-12-26T06:04:54.860Z,3.70
2018-12-26T06:05:55.893Z,3.70
2018-12-26T06:06:56.908Z,3.70
2018-12-26T06:07:57.929Z,3.70
2018-12-26T06:08:58.948Z,3.60
2018-12-26T06:09:59.989Z,3.60
2018-12-26T06:11:01.009Z,3.50
2018-12-26T06:12:02.046Z,3.50
2018-12-26T06:13:03.057Z,3.50
2018-12-26T06:14:04.084Z,3.60
2018-12-26T06:15:05.105Z,3.60
2018-12-26T06:16:06.120Z,3.60
2018-12-26T06:17:07.172Z,3.60
2018-12-26T06:18:08.354Z,3.60
2018-12-26T06:19:09.509Z,3.60
2018-12-26T06:20:10.524Z,3.60
2018-12-26T06:21:11.553Z,3.50
2018-12-26T06:22:12.582Z,3.50
2018-12-26T06:23:13.593Z,3.50
2018-12-26T06:24:14.617Z,3.40
2018-12-26T06:25:15.639Z,3.40
2018-12-26T06:26:16.654Z,3.30
2018-12-26T06:27:17.674Z,3.30
2018-12-26T06:28:18.704Z,3.20
2018-12-26T06:29:19.724Z,3.20
2018-12-26T06:30:20.749Z,3.20
2018-12-26T06:31:21.768Z,3.20
2018-12-26T06:32:24.112Z,3.10
2018-12-26T06:33:25.429Z,3.10
2018-12-26T06:34:26.461Z,3.10
2018-12-26T06:35:27.487Z,3.10
2018-12-26T06:36:28.504Z,3.10
2018-12-26T06:37:29.724Z,3.10
2018-12-26T06:38:30.797Z,3.10
2018-12-26T06:39:31.827Z,3.10
2018-12-26T06:40:32.840Z,3.10
2018-12-26T06:41:33.859Z,3.10
2018-12-26T06:42:34.876Z,3.10
2018-12-26T06:43:35.900Z,3.10
2018-12-26T06:44:36.914Z,3.00
2018-12-26T06:45:37.964Z,3.00
2018-12-26T06:46:39.001Z,3.00
2018-12-26T06:47:40.021Z,2.90
2018-12-26T06:48:41.329Z,2.90
2018-12-26T06:49:42.349Z,2.90
2018-12-26T06:50:43.373Z,2.90
2018-12-26T06:51:44.397Z,2.90
2018-12-26T06:52:45.439Z,2.90
2018-12-26T06:53:46.539Z,2.90
2018-12-26T06:54:47.557Z,3.00
2018-12-26T06:55:48.671Z,3.00
2018-12-26T06:56:49.709Z,3.10
2018-12-26T06:57:50.729Z,3.20
2018-12-26T06:58:51.753Z,3.20
2018-12-26T06:59:52.771Z,3.30
2018-12-26T07:00:53.789Z,3.40
2018-12-26T07:01:54.820Z,3.40
2018-12-26T07:02:55.854Z,3.40
2018-12-26T07:03:56.880Z,3.40
2018-12-26T07:04:58.025Z,3.40
2018-12-26T07:05:59.044Z,3.40
2018-12-26T07:07:00.100Z,3.40
2018-12-26T07:08:01.192Z,3.40
2018-12-26T07:09:03.516Z,3.30
2018-12-26T07:10:04.544Z,3.30
2018-12-26T07:11:05.562Z,3.30
2018-12-26T07:12:06.584Z,3.40
2018-12-26T07:13:07.600Z,3.40
2018-12-26T07:14:08.626Z,3.50
2018-12-26T07:15:09.640Z,3.60
2018-12-26T07:16:10.664Z,3.60
2018-12-26T07:17:11.715Z,3.60
2018-12-26T07:18:12.756Z,3.60
2018-12-26T07:19:13.781Z,3.60
2018-12-26T07:20:14.785Z,3.70
2018-12-26T07:21:15.801Z,3.60
2018-12-26T07:22:16.828Z,3.50
2018-12-26T07:23:17.884Z,3.50
2018-12-26T07:24:18.981Z,3.50
2018-12-26T07:25:20.009Z,3.50
2018-12-26T07:26:21.017Z,3.50
2018-12-26T07:27:22.051Z,3.50
2018-12-26T07:28:23.077Z,3.40
2018-12-26T07:29:24.100Z,3.40
2018-12-26T07:30:25.120Z,3.30
2018-12-26T07:31:26.133Z,3.40
2018-12-26T07:32:27.169Z,3.40
2018-12-26T07:33:28.208Z,3.40
2018-12-26T07:34:29.229Z,3.40
2018-12-26T07:35:30.252Z,3.40
2018-12-26T07:36:31.309Z,3.30
2018-12-26T07:37:32.337Z,3.40
2018-12-26T07:38:33.356Z,3.40
2018-12-26T07:39:34.372Z,3.40
2018-12-26T07:40:35.396Z,3.30
2018-12-26T07:41:36.477Z,3.20
2018-12-26T07:42:37.556Z,3.20
2018-12-26T07:43:38.604Z,3.10
2018-12-26T07:44:39.623Z,3.10
2018-12-26T07:45:40.641Z,3.00
2018-12-26T07:46:41.653Z,3.00
2018-12-26T07:47:42.684Z,3.00
2018-12-26T07:48:43.715Z,2.90
2018-12-26T07:49:44.738Z,2.90
2018-12-26T07:50:45.753Z,2.90
2018-12-26T07:51:46.893Z,2.90
2018-12-26T07:52:47.908Z,2.90
2018-12-26T07:53:48.940Z,2.90
2018-12-26T07:54:49.949Z,2.80
2018-12-26T07:55:50.976Z,2.80
2018-12-26T07:56:51.997Z,2.80
2018-12-26T07:57:53.021Z,2.70
2018-12-26T07:58:54.045Z,2.70
2018-12-26T07:59:55.065Z,2.70
2018-12-26T08:00:56.080Z,2.70
2018-12-26T08:01:57.101Z,2.70
2018-12-26T08:02:58.125Z,2.70
2018-12-26T08:03:59.149Z,2.70
2018-12-26T08:05:00.311Z,2.70
2018-12-26T08:06:01.393Z,2.60
2018-12-26T08:07:02.425Z,2.60
2018-12-26T08:08:03.458Z,2.60
2018-12-26T08:09:04.774Z,2.60
2018-12-26T08:10:06.293Z,2.50
2018-12-26T08:11:07.312Z,2.50
2018-12-26T08:12:08.337Z,2.40
2018-12-26T08:13:09.616Z,2.40
2018-12-26T08:14:10.639Z,2.40
2018-12-26T08:15:11.652Z,2.40
2018-12-26T08:16:12.676Z,2.40
2018-12-26T08:17:13.700Z,2.40
2018-12-26T08:18:14.721Z,2.40
2018-12-26T08:19:15.741Z,2.40
2018-12-26T08:20:16.753Z,2.40
2018-12-26T08:21:17.774Z,2.40
2018-12-26T08:22:18.829Z,2.50
2018-12-26T08:23:19.845Z,2.50
2018-12-26T08:24:20.862Z,2.50
2018-12-26T08:25:21.895Z,2.60
2018-12-26T08:26:23.027Z,2.60
2018-12-26T08:27:24.036Z,2.70
2018-12-26T08:28:26.717Z,2.70
2018-12-26T08:29:27.990Z,2.50
2018-12-26T08:30:29.004Z,2.50
2018-12-26T08:31:30.029Z,2.40
2018-12-26T08:32:31.056Z,2.40
2018-12-26T08:33:32.078Z,2.40
2018-12-26T08:34:33.093Z,2.50
2018-12-26T08:35:34.117Z,2.50
2018-12-26T08:36:35.144Z,2.60
2018-12-26T08:37:36.180Z,2.60
2018-12-26T08:38:37.198Z,2.60
2018-12-26T08:39:38.221Z,2.70
2018-12-26T08:40:39.243Z,2.80
2018-12-26T08:41:40.257Z,2.80
2018-12-26T08:42:41.285Z,2.90
2018-12-26T08:43:42.306Z,3.00
2018-12-26T08:44:43.328Z,3.00
2018-12-26T08:45:44.362Z,3.00
2018-12-26T08:46:45.380Z,3.10
2018-12-26T08:47:46.401Z,3.20
2018-12-26T08:48:47.416Z,3.20
2018-12-26T08:49:48.437Z,3.20
2018-12-26T08:50:49.459Z,3.20
2018-12-26T08:51:50.478Z,3.20
2018-12-26T08:52:51.501Z,3.20
2018-12-26T08:53:52.541Z,3.10
2018-12-26T08:54:53.557Z,3.10
2018-12-26T08:55:54.578Z,3.20
2018-12-26T08:56:55.609Z,3.10
2018-12-26T08:57:56.647Z,3.10
2018-12-26T08:58:57.665Z,3.20
2018-12-26T08:59:58.680Z,3.30
2018-12-26T09:00:59.713Z,3.30
2018-12-26T09:02:00.844Z,3.30
2018-12-26T09:03:01.875Z,3.30
2018-12-26T09:04:02.916Z,3.30
2018-12-26T09:05:04.833Z,3.40
2018-12-26T09:06:05.858Z,3.40
2018-12-26T09:07:06.869Z,3.40
2018-12-26T09:08:07.899Z,3.40
2018-12-26T09:09:08.918Z,3.40
2018-12-26T09:10:09.932Z,3.40
2018-12-26T09:11:10.956Z,3.40
2018-12-26T09:12:12.001Z,3.50
2018-12-26T09:13:13.033Z,3.50
2018-12-26T09:14:14.054Z,3.50
2018-12-26T09:15:15.184Z,3.50
2018-12-26T09:16:16.197Z,3.50
2018-12-26T09:17:17.259Z,3.60
2018-12-26T09:18:18.290Z,3.60
2018-12-26T09:19:19.326Z,3.60
2018-12-26T09:20:20.324Z,3.60
2018-12-26T09:21:21.348Z,3.60
2018-12-26T09:22:22.360Z,3.50
2018-12-26T09:23:23.388Z,3.60
2018-12-26T09:24:24.413Z,3.60
2018-12-26T09:25:25.733Z,3.50
2018-12-26T09:26:27.353Z,3.60
2018-12-26T09:27:28.977Z,3.50
2018-12-26T09:28:30.004Z,3.50
2018-12-26T09:29:31.021Z,3.50
2018-12-26T09:30:32.044Z,3.50
2018-12-26T09:31:33.104Z,3.50
2018-12-26T09:32:34.124Z,3.50
2018-12-26T09:33:35.161Z,3.50
2018-12-26T09:34:36.182Z,3.50
2018-12-26T09:35:37.205Z,3.50
2018-12-26T09:36:38.341Z,3.60
2018-12-26T09:37:39.369Z,3.60
2018-12-26T09:38:40.443Z,3.60
2018-12-26T09:39:41.465Z,3.60
2018-12-26T09:40:42.480Z,3.60
2018-12-26T09:41:43.507Z,3.60
2018-12-26T09:42:44.616Z,3.60
2018-12-26T09:43:45.652Z,3.60
2018-12-26T09:44:54.171Z,3.70
2018-12-26T09:45:49.610Z,3.70
2018-12-26T09:46:50.626Z,3.70
2018-12-26T09:47:51.649Z,3.60
2018-12-26T09:48:52.672Z,3.60
2018-12-26T09:49:53.694Z,3.50
2018-12-26T09:50:54.712Z,3.50
2018-12-26T09:51:55.736Z,3.40
2018-12-26T09:52:56.764Z,3.30
2018-12-26T09:53:57.800Z,3.20
2018-12-26T09:54:58.825Z,3.10
2018-12-26T09:55:59.846Z,2.90
2018-12-26T09:57:00.904Z,2.90
2018-12-26T09:58:02.006Z,2.90
2018-12-26T09:59:03.369Z,2.80
2018-12-26T10:00:07.212Z,2.80
2018-12-26T10:01:08.273Z,2.80
2018-12-26T10:02:09.361Z,2.80
2018-12-26T10:03:10.381Z,2.80
2018-12-26T10:04:11.411Z,2.80
2018-12-26T10:05:12.460Z,2.80
2018-12-26T10:06:13.472Z,2.70
2018-12-26T10:07:14.525Z,2.70
2018-12-26T10:08:15.635Z,2.70
2018-12-26T10:09:16.645Z,2.70
2018-12-26T10:10:17.668Z,2.80
2018-12-26T10:11:18.701Z,2.70
2018-12-26T10:12:19.712Z,2.70
2018-12-26T10:13:20.745Z,2.70
2018-12-26T10:14:21.753Z,2.80
2018-12-26T10:15:22.770Z,2.80
2018-12-26T10:16:23.788Z,2.80
2018-12-26T10:17:24.812Z,2.80
2018-12-26T10:18:25.838Z,2.80
2018-12-26T10:19:26.864Z,2.80
2018-12-26T10:20:27.877Z,2.80
2018-12-26T10:21:28.901Z,2.80
2018-12-26T10:22:29.920Z,2.80
2018-12-26T10:23:30.956Z,2.90
2018-12-26T10:24:31.984Z,3.00
2018-12-26T10:25:33.004Z,3.00
2018-12-26T10:26:34.021Z,3.10
2018-12-26T10:27:35.033Z,3.10
2018-12-26T10:28:36.066Z,3.20
2018-12-26T10:29:37.088Z,3.20
2018-12-26T10:30:38.121Z,3.20
2018-12-26T10:31:39.159Z,3.30
2018-12-26T10:32:40.164Z,3.30
2018-12-26T10:33:41.207Z,3.30
2018-12-26T10:34:42.216Z,3.40
2018-12-26T10:35:43.245Z,3.50
2018-12-26T10:36:44.277Z,3.40
2018-12-26T10:37:45.297Z,3.50
2018-12-26T10:38:46.326Z,3.50
2018-12-26T10:39:47.349Z,3.50
2018-12-26T10:40:48.376Z,3.60
2018-12-26T10:41:49.399Z,3.60
2018-12-26T10:42:50.452Z,3.70
2018-12-26T10:43:51.583Z,3.70
2018-12-26T10:44:52.599Z,3.70
2018-12-26T10:45:53.610Z,3.70
2018-12-26T10:46:54.628Z,3.70
2018-12-26T10:47:55.652Z,3.70
2018-12-26T10:48:56.682Z,3.60
2018-12-26T10:49:57.705Z,3.50
2018-12-26T10:50:58.717Z,3.50
2018-12-26T10:51:59.729Z,3.50
2018-12-26T10:53:00.956Z,3.50
2018-12-26T10:54:02.005Z,3.50
2018-12-26T10:55:03.938Z,3.60
2018-12-26T10:56:04.983Z,3.60
2018-12-26T10:57:06.003Z,3.70
2018-12-26T10:58:07.528Z,3.70
2018-12-26T10:59:10.358Z,3.80
2018-12-26T11:00:11.588Z,3.90
2018-12-26T11:01:12.604Z,3.90
2018-12-26T11:02:13.630Z,3.90
2018-12-26T11:03:14.649Z,4.00
2018-12-26T11:04:15.681Z,4.00
2018-12-26T11:05:16.994Z,4.00
2018-12-26T11:06:18.016Z,4.10
2018-12-26T11:07:19.028Z,4.10
2018-12-26T11:08:20.056Z,4.10
2018-12-26T11:09:21.082Z,4.10
2018-12-26T11:10:22.109Z,4.10
2018-12-26T11:11:23.125Z,4.10
2018-12-26T11:12:25.513Z,4.10
2018-12-26T11:13:26.541Z,4.10
2018-12-26T11:14:27.552Z,4.10
2018-12-26T11:15:28.580Z,4.10
2018-12-26T11:16:29.708Z,4.10
2018-12-26T11:17:30.832Z,4.10
2018-12-26T11:18:31.851Z,4.20
2018-12-26T11:19:33.268Z,4.20
2018-12-26T11:20:34.292Z,4.00
2018-12-26T11:21:35.320Z,4.00
2018-12-26T11:22:36.332Z,4.00
2018-12-26T11:23:37.358Z,4.00
2018-12-26T11:24:38.477Z,4.00
2018-12-26T11:25:39.500Z,4.00
2018-12-26T11:26:40.512Z,4.00
2018-12-26T11:27:41.536Z,4.00
2018-12-26T11:28:42.568Z,4.10
2018-12-26T11:29:43.593Z,4.00
2018-12-26T11:30:44.782Z,4.00
2018-12-26T11:31:45.880Z,4.00
2018-12-26T11:32:46.911Z,3.90
2018-12-26T11:33:47.933Z,3.90
2018-12-26T11:34:48.954Z,3.80
2018-12-26T11:35:49.985Z,3.80
2018-12-26T11:36:51.018Z,3.80
2018-12-26T11:37:52.157Z,3.80
2018-12-26T11:38:53.496Z,3.80
2018-12-26T11:39:54.536Z,3.90
2018-12-26T11:40:55.552Z,3.90
2018-12-26T11:41:56.572Z,3.90
2018-12-26T11:42:57.592Z,3.90
2018-12-26T11:43:58.616Z,3.90
2018-12-26T11:44:59.646Z,3.90
2018-12-26T11:46:00.666Z,3.80
2018-12-26T11:47:01.682Z,3.80
2018-12-26T11:48:02.700Z,3.80
2018-12-26T11:49:03.749Z,3.90
2018-12-26T11:50:06.265Z,3.90
2018-12-26T11:51:07.460Z,4.00
2018-12-26T11:52:08.478Z,3.90
2018-12-26T11:53:09.521Z,3.90
2018-12-26T11:54:10.549Z,3.90
2018-12-26T11:55:11.569Z,3.90
2018-12-26T11:56:12.588Z,3.90
2018-12-26T11:57:13.613Z,3.90
2018-12-26T11:58:14.641Z,4.00
2018-12-26T11:59:15.903Z,4.00
2018-12-26T12:00:17.186Z,4.10
2018-12-26T12:01:18.209Z,4.00
2018-12-26T12:02:20.654Z,4.10
2018-12-26T12:03:21.953Z,4.10
2018-12-26T12:04:22.994Z,4.20
2018-12-26T12:05:24.013Z,4.20
2018-12-26T12:06:25.046Z,4.20
2018-12-26T12:07:26.350Z,4.20
2018-12-26T12:08:27.377Z,4.10
2018-12-26T12:09:28.408Z,4.20
2018-12-26T12:10:29.429Z,4.20
2018-12-26T12:11:30.552Z,4.20
2018-12-26T12:12:31.580Z,4.20
2018-12-26T12:13:32.600Z,4.20
2018-12-26T12:14:33.635Z,4.20
2018-12-26T12:15:34.669Z,4.30
2018-12-26T12:16:35.705Z,4.30
2018-12-26T12:17:36.704Z,4.30
2018-12-26T12:18:37.728Z,4.20
2018-12-26T12:19:38.763Z,4.20
2018-12-26T12:20:39.773Z,4.10
2018-12-26T12:21:40.796Z,4.00
2018-12-26T12:22:41.820Z,4.00
2018-12-26T12:23:42.881Z,4.00
2018-12-26T12:24:43.930Z,3.90
2018-12-26T12:25:44.955Z,3.90
2018-12-26T12:26:45.973Z,3.90
2018-12-26T12:27:47.000Z,3.90
2018-12-26T12:28:48.027Z,4.00
2018-12-26T12:29:49.049Z,4.00
2018-12-26T12:30:50.090Z,3.90
2018-12-26T12:31:51.136Z,3.90
2018-12-26T12:32:52.167Z,3.90
2018-12-26T12:33:53.247Z,3.80
2018-12-26T12:34:54.344Z,3.70
2018-12-26T12:35:55.365Z,3.70
2018-12-26T12:36:56.396Z,3.70
2018-12-26T12:37:57.513Z,3.70
2018-12-26T12:38:58.546Z,3.70
2018-12-26T12:39:59.565Z,3.70
2018-12-26T12:41:00.589Z,3.80
2018-12-26T12:42:01.618Z,3.80
2018-12-26T12:43:02.650Z,3.90
2018-12-26T12:44:03.681Z,3.90
2018-12-26T12:45:06.202Z,3.90
2018-12-26T12:46:07.327Z,3.90
2018-12-26T12:47:08.445Z,3.90
2018-12-26T12:48:09.476Z,3.90
2018-12-26T12:49:10.500Z,3.90
2018-12-26T12:50:11.686Z,4.00
2018-12-26T12:51:12.706Z,4.00
2018-12-26T12:52:13.768Z,4.00
2018-12-26T12:53:14.802Z,4.10
2018-12-26T12:54:15.844Z,4.10
2018-12-26T12:55:16.876Z,4.10
2018-12-26T12:56:18.012Z,4.00
2018-12-26T12:57:19.053Z,4.00
2018-12-26T12:58:20.073Z,4.00
2018-12-26T12:59:21.218Z,4.10
2018-12-26T13:00:22.233Z,4.10
2018-12-26T13:01:23.251Z,4.10
2018-12-26T13:02:24.389Z,4.10
2018-12-26T13:03:25.509Z,4.10
2018-12-26T13:04:26.538Z,4.20
2018-12-26T13:05:27.665Z,4.20
2018-12-26T13:06:28.710Z,4.20
2018-12-26T13:07:29.736Z,4.30
2018-12-26T13:08:30.765Z,4.30
2018-12-26T13:09:31.821Z,4.40
2018-12-26T13:10:32.832Z,4.40
2018-12-26T13:11:33.961Z,4.50
2018-12-26T13:12:34.976Z,4.60
2018-12-26T13:13:36.002Z,4.60
2018-12-26T13:14:37.028Z,4.70
2018-12-26T13:15:38.052Z,4.70
2018-12-26T13:16:39.072Z,4.80
2018-12-26T13:17:40.104Z,4.80
2018-12-26T13:18:41.125Z,4.80
2018-12-26T13:19:42.157Z,4.80
2018-12-26T13:20:43.188Z,4.80
2018-12-26T13:21:44.206Z,4.80
2018-12-26T13:22:45.226Z,4.80
2018-12-26T13:23:46.257Z,4.80
2018-12-26T13:24:47.282Z,4.80
2018-12-26T13:25:48.297Z,4.90
2018-12-26T13:26:49.321Z,4.90
2018-12-26T13:27:50.638Z,4.90
2018-12-26T13:28:51.663Z,4.90
2018-12-26T13:29:53.822Z,4.90
2018-12-26T13:30:55.317Z,4.90
2018-12-26T13:31:56.332Z,4.90
2018-12-26T13:32:57.348Z,4.90